KHB102 VVPQ-UHWW
Flight info
| Callsign | KHB102 |
|---|---|
| Flight time | N/A |
| Altitude | 35000 |
| Route | OSOTA1D OSOTA M753 TIA N639 VIBUN R575 PAPRA/K0920F330 A1 IKELA/N0495F330 P901 BIGEX A1 KADLO L1 SALMI B576 SOSDO Y571 PSN A586 TENAS B467 KANSU/K0878F330 G711 RIVAT A900 MATEN DCT VATIS VATIS2N |
| Aircraft | B77W/H-SDE1E2E3FGHIJ2J3J4J5M1RWXY/LB1D1 |
Departure
| Time | N/A |
|---|---|
| Airport | Phú Quốc International Airport (VVPQ) |
Arrival
| Time | 2026-04-16 11:38 |
|---|---|
| Airport | Vladivostok International Airport (UHWW) |
| Time | Latitude | Longitude | Altitude | Speed | Heading |
|---|---|---|---|---|---|
| 2026-04-16 09:46 | 31.40504 | 125.77942 | 35005 ft | 506 kts | 11° |
| 2026-04-16 09:47 | 31.47126 | 125.80735 | 35005 ft | 506 kts | 11° |
| 2026-04-16 09:47 | 31.53750 | 125.83535 | 35006 ft | 506 kts | 11° |
| 2026-04-16 09:48 | 31.60362 | 125.86332 | 35007 ft | 505 kts | 11° |
| 2026-04-16 09:48 | 31.66988 | 125.89118 | 35007 ft | 505 kts | 11° |
| 2026-04-16 09:49 | 31.72480 | 125.91428 | 35008 ft | 505 kts | 11° |
| 2026-04-16 09:49 | 31.79094 | 125.94217 | 35013 ft | 505 kts | 11° |
| 2026-04-16 09:50 | 31.85705 | 125.97004 | 35018 ft | 505 kts | 11° |
| 2026-04-16 09:50 | 31.92315 | 125.99794 | 35014 ft | 505 kts | 11° |
| 2026-04-16 09:51 | 31.99996 | 126.03042 | 35018 ft | 505 kts | 10° |
| 2026-04-16 09:51 | 32.05537 | 126.05389 | 35018 ft | 505 kts | 10° |
| 2026-04-16 09:52 | 32.12112 | 126.08174 | 35020 ft | 505 kts | 10° |
| 2026-04-16 09:52 | 32.18718 | 126.10971 | 35025 ft | 505 kts | 10° |
| 2026-04-16 09:53 | 32.25336 | 126.13779 | 35023 ft | 505 kts | 10° |
| 2026-04-16 09:53 | 32.31947 | 126.16590 | 35023 ft | 505 kts | 10° |
| 2026-04-16 09:54 | 32.38555 | 126.19404 | 35022 ft | 505 kts | 10° |
| 2026-04-16 09:54 | 32.45164 | 126.22223 | 35025 ft | 505 kts | 10° |
| 2026-04-16 09:55 | 32.51759 | 126.25040 | 35029 ft | 504 kts | 10° |
| 2026-04-16 09:55 | 32.58361 | 126.27868 | 35029 ft | 504 kts | 10° |
| 2026-04-16 09:56 | 32.64964 | 126.30710 | 35033 ft | 504 kts | 11° |
| 2026-04-16 09:56 | 32.71554 | 126.33553 | 35033 ft | 504 kts | 11° |
| 2026-04-16 09:57 | 32.78150 | 126.36401 | 35034 ft | 504 kts | 11° |
| 2026-04-16 09:57 | 32.84742 | 126.39252 | 35029 ft | 504 kts | 11° |
| 2026-04-16 09:58 | 32.91337 | 126.42109 | 35031 ft | 504 kts | 11° |
| 2026-04-16 09:58 | 32.97877 | 126.45188 | 35026 ft | 513 kts | 18° |
| 2026-04-16 09:59 | 33.04018 | 126.49713 | 35038 ft | 526 kts | 30° |
| 2026-04-16 09:59 | 33.09569 | 126.55421 | 35045 ft | 532 kts | 35° |
| 2026-04-16 10:00 | 33.15079 | 126.61296 | 35055 ft | 531 kts | 34° |
| 2026-04-16 10:00 | 33.20639 | 126.67084 | 35057 ft | 530 kts | 34° |
| 2026-04-16 10:01 | 33.28985 | 126.75763 | 35063 ft | 530 kts | 34° |
| 2026-04-16 10:01 | 33.34533 | 126.81565 | 35064 ft | 530 kts | 34° |
| 2026-04-16 10:02 | 33.40081 | 126.87375 | 35065 ft | 530 kts | 34° |
| 2026-04-16 10:02 | 33.45625 | 126.93191 | 35073 ft | 530 kts | 34° |
| 2026-04-16 10:03 | 33.51175 | 126.99022 | 35061 ft | 531 kts | 34° |
| 2026-04-16 10:03 | 33.56720 | 127.04864 | 35067 ft | 531 kts | 34° |
| 2026-04-16 10:04 | 33.61922 | 127.11304 | 35072 ft | 541 kts | 41° |
| 2026-04-16 10:04 | 33.66855 | 127.18058 | 35067 ft | 542 kts | 42° |
| 2026-04-16 10:05 | 33.71854 | 127.24842 | 35071 ft | 542 kts | 41° |
| 2026-04-16 10:05 | 33.76881 | 127.31592 | 35063 ft | 542 kts | 41° |
| 2026-04-16 10:06 | 33.81906 | 127.38354 | 35070 ft | 542 kts | 41° |
| 2026-04-16 10:06 | 33.86918 | 127.45113 | 35070 ft | 542 kts | 41° |
| 2026-04-16 10:07 | 33.91930 | 127.51885 | 35075 ft | 541 kts | 41° |
| 2026-04-16 10:07 | 33.96936 | 127.58663 | 35075 ft | 541 kts | 41° |
| 2026-04-16 10:08 | 34.01936 | 127.65448 | 35075 ft | 541 kts | 41° |
| 2026-04-16 10:08 | 34.06937 | 127.72245 | 35084 ft | 541 kts | 41° |
| 2026-04-16 10:09 | 34.11932 | 127.79049 | 35079 ft | 541 kts | 41° |
| 2026-04-16 10:09 | 34.16924 | 127.85861 | 35079 ft | 541 kts | 41° |
| 2026-04-16 10:10 | 34.21906 | 127.92674 | 35092 ft | 541 kts | 41° |
| 2026-04-16 10:10 | 34.26893 | 127.99505 | 35084 ft | 541 kts | 40° |
| 2026-04-16 10:11 | 34.31871 | 128.06337 | 35091 ft | 541 kts | 40° |
| 2026-04-16 10:11 | 34.36813 | 128.13133 | 35093 ft | 541 kts | 40° |
| 2026-04-16 10:12 | 34.41782 | 128.19981 | 35094 ft | 541 kts | 40° |
| 2026-04-16 10:12 | 34.46741 | 128.26829 | 35094 ft | 540 kts | 41° |
| 2026-04-16 10:13 | 34.51690 | 128.33679 | 35104 ft | 540 kts | 41° |
| 2026-04-16 10:13 | 34.56629 | 128.40526 | 35105 ft | 539 kts | 41° |
| 2026-04-16 10:14 | 34.61563 | 128.47381 | 35108 ft | 539 kts | 41° |
| 2026-04-16 10:14 | 34.66486 | 128.54231 | 35109 ft | 538 kts | 41° |
| 2026-04-16 10:15 | 34.71405 | 128.61092 | 35119 ft | 538 kts | 41° |
| 2026-04-16 10:15 | 34.76316 | 128.67958 | 35127 ft | 537 kts | 41° |
| 2026-04-16 10:16 | 34.81184 | 128.74778 | 35120 ft | 537 kts | 41° |
| 2026-04-16 10:16 | 34.86076 | 128.81641 | 35128 ft | 537 kts | 41° |
| 2026-04-16 10:17 | 34.91215 | 128.88112 | 35129 ft | 522 kts | 29° |
| 2026-04-16 10:17 | 34.97211 | 128.92803 | 35133 ft | 503 kts | 15° |
| 2026-04-16 10:18 | 35.00400 | 128.94406 | 35135 ft | 492 kts | 9° |
| 2026-04-16 10:18 | 35.03624 | 128.95825 | 35146 ft | 493 kts | 9° |
| 2026-04-16 10:18 | 35.10039 | 128.98952 | 35138 ft | 505 kts | 16° |
| 2026-04-16 10:19 | 35.16110 | 129.03531 | 35133 ft | 523 kts | 28° |
| 2026-04-16 10:19 | 35.21756 | 129.09235 | 35143 ft | 527 kts | 31° |
| 2026-04-16 10:20 | 35.27353 | 129.15003 | 35154 ft | 525 kts | 31° |
| 2026-04-16 10:20 | 35.32970 | 129.20691 | 35149 ft | 523 kts | 30° |
| 2026-04-16 10:21 | 35.38581 | 129.26343 | 35164 ft | 521 kts | 30° |
| 2026-04-16 10:21 | 35.44168 | 129.31987 | 35169 ft | 519 kts | 30° |
| 2026-04-16 10:22 | 35.49706 | 129.37581 | 35181 ft | 519 kts | 30° |
| 2026-04-16 10:22 | 35.55273 | 129.43211 | 35179 ft | 518 kts | 30° |
| 2026-04-16 10:23 | 35.60839 | 129.48855 | 35177 ft | 518 kts | 30° |
| 2026-04-16 10:23 | 35.66399 | 129.54504 | 35169 ft | 518 kts | 30° |
| 2026-04-16 10:24 | 35.71945 | 129.60151 | 35181 ft | 517 kts | 30° |
| 2026-04-16 10:24 | 35.77476 | 129.65792 | 35178 ft | 517 kts | 30° |
| 2026-04-16 10:25 | 35.83017 | 129.71453 | 35178 ft | 516 kts | 30° |
| 2026-04-16 10:25 | 35.88544 | 129.77113 | 35181 ft | 516 kts | 30° |
| 2026-04-16 10:26 | 35.94025 | 129.82733 | 35188 ft | 516 kts | 30° |
| 2026-04-16 10:26 | 35.99539 | 129.88411 | 35185 ft | 516 kts | 30° |
| 2026-04-16 10:27 | 36.05038 | 129.94095 | 35190 ft | 516 kts | 30° |
| 2026-04-16 10:27 | 36.10534 | 129.99784 | 35183 ft | 515 kts | 30° |
| 2026-04-16 10:28 | 36.16028 | 130.05482 | 35192 ft | 515 kts | 30° |
| 2026-04-16 10:28 | 36.21520 | 130.11187 | 35188 ft | 515 kts | 30° |
| 2026-04-16 10:29 | 36.27009 | 130.16900 | 35195 ft | 514 kts | 30° |
| 2026-04-16 10:29 | 36.32455 | 130.22577 | 35189 ft | 514 kts | 30° |
| 2026-04-16 10:30 | 36.37917 | 130.28275 | 35199 ft | 513 kts | 30° |
| 2026-04-16 10:30 | 36.43375 | 130.33980 | 35198 ft | 513 kts | 30° |
| 2026-04-16 10:31 | 36.48829 | 130.39692 | 35204 ft | 512 kts | 30° |
| 2026-04-16 10:31 | 36.54275 | 130.45408 | 35189 ft | 512 kts | 30° |
| 2026-04-16 10:32 | 36.59706 | 130.51120 | 35194 ft | 511 kts | 30° |
| 2026-04-16 10:32 | 36.65134 | 130.56838 | 35194 ft | 511 kts | 31° |
| 2026-04-16 10:33 | 36.70553 | 130.62559 | 35210 ft | 511 kts | 31° |
| 2026-04-16 10:33 | 36.75978 | 130.68295 | 35211 ft | 511 kts | 31° |
| 2026-04-16 10:34 | 36.81476 | 130.73878 | 35206 ft | 509 kts | 29° |
| 2026-04-16 10:34 | 36.87024 | 130.79363 | 35201 ft | 509 kts | 29° |
| 2026-04-16 10:35 | 36.92566 | 130.84875 | 35207 ft | 509 kts | 29° |
| 2026-04-16 10:35 | 36.98056 | 130.90383 | 35206 ft | 510 kts | 30° |
| 2026-04-16 10:36 | 37.00812 | 130.93160 | 35031 ft | 505 kts | 29° |
| 2026-04-16 10:36 | 37.03521 | 130.95894 | 35104 ft | 497 kts | 29° |
| 2026-04-16 10:36 | 37.08896 | 131.01321 | 35200 ft | 497 kts | 29° |
| 2026-04-16 10:37 | 37.14305 | 131.06781 | 35208 ft | 501 kts | 29° |
| 2026-04-16 10:37 | 37.19741 | 131.12280 | 35210 ft | 503 kts | 29° |
| 2026-04-16 10:38 | 37.25201 | 131.17821 | 35208 ft | 504 kts | 29° |
| 2026-04-16 10:38 | 37.30648 | 131.23363 | 35209 ft | 504 kts | 29° |
| 2026-04-16 10:39 | 37.36087 | 131.28904 | 35204 ft | 502 kts | 29° |
| 2026-04-16 10:39 | 37.41465 | 131.34393 | 35207 ft | 500 kts | 29° |
| 2026-04-16 10:40 | 37.46848 | 131.39896 | 35208 ft | 498 kts | 29° |
| 2026-04-16 10:40 | 37.52209 | 131.45387 | 35210 ft | 496 kts | 29° |
| 2026-04-16 10:41 | 37.56688 | 131.49982 | 35208 ft | 495 kts | 29° |
| 2026-04-16 10:41 | 37.62019 | 131.55461 | 35216 ft | 494 kts | 30° |
| 2026-04-16 10:42 | 37.67459 | 131.60697 | 35205 ft | 489 kts | 26° |
| 2026-04-16 10:42 | 37.72998 | 131.65589 | 35211 ft | 490 kts | 25° |
| 2026-04-16 10:43 | 37.78591 | 131.70542 | 35216 ft | 492 kts | 26° |
| 2026-04-16 10:43 | 37.84181 | 131.75562 | 35225 ft | 494 kts | 26° |
| 2026-04-16 10:44 | 37.89788 | 131.80614 | 35224 ft | 495 kts | 27° |
| 2026-04-16 10:44 | 37.95410 | 131.85675 | 35225 ft | 496 kts | 27° |
| 2026-04-16 10:45 | 38.01045 | 131.90748 | 35212 ft | 496 kts | 27° |
| 2026-04-16 10:45 | 38.06668 | 131.95822 | 35224 ft | 496 kts | 27° |
| 2026-04-16 10:46 | 38.12290 | 132.00906 | 35215 ft | 495 kts | 27° |
| 2026-04-16 10:46 | 38.17909 | 132.05999 | 35219 ft | 495 kts | 27° |
| 2026-04-16 10:47 | 38.23506 | 132.11080 | 35228 ft | 494 kts | 27° |
| 2026-04-16 10:47 | 38.29096 | 132.16165 | 35228 ft | 494 kts | 27° |
| 2026-04-16 10:48 | 38.34686 | 132.21259 | 35224 ft | 494 kts | 27° |
| 2026-04-16 10:48 | 38.40221 | 132.26314 | 35226 ft | 493 kts | 27° |
| 2026-04-16 10:49 | 38.45804 | 132.31423 | 35227 ft | 493 kts | 27° |
| 2026-04-16 10:49 | 38.51385 | 132.36541 | 35227 ft | 494 kts | 27° |
| 2026-04-16 10:50 | 38.56962 | 132.41663 | 35226 ft | 494 kts | 27° |
| 2026-04-16 10:50 | 38.62773 | 132.45985 | 35227 ft | 470 kts | 9° |
| 2026-04-16 10:51 | 38.65893 | 132.47006 | 35235 ft | 458 kts | 0° |
| 2026-04-16 10:51 | 38.69019 | 132.47351 | 35235 ft | 444 kts | 349° |
| 2026-04-16 10:51 | 38.75161 | 132.46930 | 35239 ft | 443 kts | 348° |
| 2026-04-16 10:52 | 38.81348 | 132.46498 | 35233 ft | 447 kts | 348° |
| 2026-04-16 10:52 | 38.87576 | 132.46117 | 35236 ft | 449 kts | 349° |
| 2026-04-16 10:53 | 38.93826 | 132.45759 | 35235 ft | 450 kts | 349° |
| 2026-04-16 10:53 | 39.00087 | 132.45404 | 35229 ft | 450 kts | 349° |
| 2026-04-16 10:54 | 39.06345 | 132.45047 | 35233 ft | 450 kts | 349° |
| 2026-04-16 10:54 | 39.12598 | 132.44687 | 35234 ft | 449 kts | 349° |
| 2026-04-16 10:55 | 39.18798 | 132.44330 | 35227 ft | 448 kts | 348° |
| 2026-04-16 10:55 | 39.25027 | 132.43970 | 35231 ft | 448 kts | 348° |
| 2026-04-16 10:56 | 39.31246 | 132.43609 | 35231 ft | 447 kts | 348° |
| 2026-04-16 10:56 | 39.37469 | 132.43249 | 35231 ft | 447 kts | 348° |
| 2026-04-16 10:57 | 39.43663 | 132.42828 | 35233 ft | 446 kts | 348° |
| 2026-04-16 10:57 | 39.49862 | 132.42339 | 35229 ft | 446 kts | 347° |
| 2026-04-16 10:58 | 39.56057 | 132.41849 | 35226 ft | 446 kts | 347° |
| 2026-04-16 10:58 | 39.62265 | 132.41368 | 35232 ft | 446 kts | 348° |
| 2026-04-16 10:59 | 39.68466 | 132.40891 | 35227 ft | 447 kts | 348° |
| 2026-04-16 10:59 | 39.74680 | 132.40414 | 35226 ft | 447 kts | 348° |
| 2026-04-16 11:00 | 39.80894 | 132.39935 | 35227 ft | 447 kts | 348° |
| 2026-04-16 11:00 | 39.87067 | 132.39459 | 35227 ft | 448 kts | 348° |
| 2026-04-16 11:01 | 39.93291 | 132.38977 | 35224 ft | 448 kts | 348° |
| 2026-04-16 11:01 | 39.99524 | 132.38495 | 35224 ft | 449 kts | 348° |
| 2026-04-16 11:02 | 40.05757 | 132.38011 | 35222 ft | 449 kts | 348° |
| 2026-04-16 11:02 | 40.11987 | 132.37526 | 35646 ft | 450 kts | 348° |
| 2026-04-16 11:03 | 40.15158 | 132.37268 | 35464 ft | 462 kts | 349° |
| 2026-04-16 11:03 | 40.18394 | 132.37001 | 35384 ft | 471 kts | 349° |
| 2026-04-16 11:03 | 40.25010 | 132.36480 | 35283 ft | 478 kts | 349° |
| 2026-04-16 11:04 | 40.28331 | 132.36233 | 35242 ft | 477 kts | 349° |
| 2026-04-16 11:04 | 40.34927 | 132.35737 | 35229 ft | 473 kts | 349° |
| 2026-04-16 11:05 | 40.41484 | 132.35228 | 35221 ft | 470 kts | 349° |
| 2026-04-16 11:05 | 40.48001 | 132.34715 | 35218 ft | 468 kts | 349° |
| 2026-04-16 11:06 | 40.54499 | 132.34201 | 35222 ft | 468 kts | 349° |
| 2026-04-16 11:06 | 40.60999 | 132.33686 | 35219 ft | 468 kts | 349° |
| 2026-04-16 11:07 | 40.67513 | 132.33170 | 35220 ft | 469 kts | 349° |
| 2026-04-16 11:07 | 40.73998 | 132.32656 | 35216 ft | 470 kts | 349° |
| 2026-04-16 11:08 | 40.80533 | 132.32138 | 35220 ft | 471 kts | 349° |
| 2026-04-16 11:08 | 40.87074 | 132.31618 | 35216 ft | 471 kts | 349° |
| 2026-04-16 11:09 | 40.93606 | 132.31099 | 35215 ft | 470 kts | 349° |
| 2026-04-16 11:09 | 41.00131 | 132.30579 | 35208 ft | 468 kts | 349° |
| 2026-04-16 11:10 | 41.06627 | 132.30059 | 35214 ft | 467 kts | 349° |
| 2026-04-16 11:10 | 41.13109 | 132.29540 | 35204 ft | 466 kts | 349° |
| 2026-04-16 11:11 | 41.19578 | 132.29020 | 35210 ft | 465 kts | 349° |
| 2026-04-16 11:11 | 41.26033 | 132.28500 | 35207 ft | 465 kts | 349° |
| 2026-04-16 11:12 | 41.32492 | 132.27979 | 35214 ft | 465 kts | 349° |
| 2026-04-16 11:12 | 41.38954 | 132.27457 | 35207 ft | 465 kts | 349° |
| 2026-04-16 11:13 | 41.45379 | 132.26937 | 35213 ft | 466 kts | 349° |
| 2026-04-16 11:13 | 41.51852 | 132.26405 | 35209 ft | 466 kts | 348° |
| 2026-04-16 11:14 | 41.58322 | 132.25849 | 35210 ft | 466 kts | 348° |
| 2026-04-16 11:14 | 41.64795 | 132.25290 | 35212 ft | 466 kts | 348° |
| 2026-04-16 11:15 | 41.71292 | 132.24726 | 34643 ft | 472 kts | 349° |
| 2026-04-16 11:15 | 41.74561 | 132.24444 | 34137 ft | 468 kts | 349° |
| 2026-04-16 11:15 | 41.77792 | 132.24171 | 33555 ft | 463 kts | 349° |
| 2026-04-16 11:15 | 41.80985 | 132.23901 | 33029 ft | 457 kts | 349° |
| 2026-04-16 11:16 | 41.84138 | 132.23632 | 32518 ft | 451 kts | 349° |
| 2026-04-16 11:16 | 41.87255 | 132.23365 | 32018 ft | 446 kts | 349° |
| 2026-04-16 11:16 | 41.90334 | 132.23099 | 31532 ft | 441 kts | 349° |
| 2026-04-16 11:16 | 41.93378 | 132.22834 | 31052 ft | 436 kts | 350° |
| 2026-04-16 11:17 | 41.96390 | 132.22572 | 30575 ft | 431 kts | 350° |
| 2026-04-16 11:17 | 41.99382 | 132.22311 | 30059 ft | 427 kts | 350° |
| 2026-04-16 11:17 | 42.02292 | 132.22058 | 29519 ft | 422 kts | 351° |
| 2026-04-16 11:17 | 42.05205 | 132.21804 | 29041 ft | 417 kts | 351° |
| 2026-04-16 11:18 | 42.08083 | 132.21554 | 28562 ft | 411 kts | 351° |
| 2026-04-16 11:18 | 42.10920 | 132.21307 | 28070 ft | 406 kts | 351° |
| 2026-04-16 11:18 | 42.13722 | 132.21063 | 27608 ft | 401 kts | 351° |
| 2026-04-16 11:18 | 42.16490 | 132.20820 | 27143 ft | 397 kts | 351° |
| 2026-04-16 11:19 | 42.19235 | 132.20580 | 26684 ft | 392 kts | 352° |
| 2026-04-16 11:19 | 42.21942 | 132.20342 | 26227 ft | 388 kts | 352° |
| 2026-04-16 11:19 | 42.24618 | 132.20107 | 25787 ft | 384 kts | 352° |
| 2026-04-16 11:19 | 42.27272 | 132.19874 | 25356 ft | 380 kts | 352° |
| 2026-04-16 11:20 | 42.29894 | 132.19644 | 24914 ft | 376 kts | 352° |
| 2026-04-16 11:20 | 42.32492 | 132.19417 | 24475 ft | 372 kts | 352° |
| 2026-04-16 11:20 | 42.35065 | 132.19195 | 24059 ft | 369 kts | 353° |
| 2026-04-16 11:20 | 42.37614 | 132.18990 | 23605 ft | 366 kts | 353° |
| 2026-04-16 11:21 | 42.40148 | 132.18789 | 23119 ft | 362 kts | 353° |
| 2026-04-16 11:21 | 42.42644 | 132.18589 | 22675 ft | 358 kts | 353° |
| 2026-04-16 11:21 | 42.45082 | 132.18386 | 22267 ft | 354 kts | 353° |
| 2026-04-16 11:21 | 42.47528 | 132.18175 | 21847 ft | 350 kts | 353° |
| 2026-04-16 11:22 | 42.49978 | 132.17959 | 21449 ft | 357 kts | 353° |
| 2026-04-16 11:22 | 42.52454 | 132.17741 | 20980 ft | 356 kts | 353° |
| 2026-04-16 11:22 | 42.54925 | 132.17526 | 20495 ft | 354 kts | 354° |
| 2026-04-16 11:22 | 42.57378 | 132.17313 | 20015 ft | 352 kts | 354° |
| 2026-04-16 11:23 | 42.59806 | 132.17102 | 19558 ft | 349 kts | 354° |
| 2026-04-16 11:23 | 42.62223 | 132.16892 | 19092 ft | 347 kts | 354° |
| 2026-04-16 11:23 | 42.64622 | 132.16684 | 18637 ft | 345 kts | 354° |
| 2026-04-16 11:23 | 42.67010 | 132.16476 | 18181 ft | 341 kts | 354° |
| 2026-04-16 11:24 | 42.69365 | 132.16272 | 17777 ft | 337 kts | 354° |
| 2026-04-16 11:24 | 42.71687 | 132.16070 | 17356 ft | 333 kts | 354° |
| 2026-04-16 11:24 | 42.73987 | 132.15870 | 16942 ft | 330 kts | 354° |
| 2026-04-16 11:24 | 42.76267 | 132.15670 | 16498 ft | 327 kts | 354° |
| 2026-04-16 11:25 | 42.78536 | 132.15472 | 16064 ft | 325 kts | 354° |
| 2026-04-16 11:25 | 42.80789 | 132.15274 | 15632 ft | 324 kts | 354° |
| 2026-04-16 11:25 | 42.83035 | 132.15081 | 15014 ft | 324 kts | 350° |
| 2026-04-16 11:25 | 42.85326 | 132.14875 | 14627 ft | 340 kts | 351° |
| 2026-04-16 11:26 | 42.87734 | 132.14757 | 14242 ft | 351 kts | 356° |
| 2026-04-16 11:26 | 42.90176 | 132.14925 | 13817 ft | 351 kts | 359° |
| 2026-04-16 11:26 | 42.92602 | 132.15189 | 13405 ft | 349 kts | 360° |
| 2026-04-16 11:26 | 42.95010 | 132.15460 | 13001 ft | 346 kts | 360° |
| 2026-04-16 11:27 | 42.97418 | 132.15714 | 12590 ft | 347 kts | 360° |
| 2026-04-16 11:27 | 42.99811 | 132.15950 | 12181 ft | 346 kts | 360° |
| 2026-04-16 11:27 | 43.02197 | 132.16173 | 11916 ft | 341 kts | 360° |
| 2026-04-16 11:27 | 43.04562 | 132.16386 | 11473 ft | 340 kts | 360° |
| 2026-04-16 11:28 | 43.06917 | 132.16593 | 10957 ft | 334 kts | 360° |
| 2026-04-16 11:28 | 43.08462 | 132.16727 | 10469 ft | 338 kts | 0° |
| 2026-04-16 11:28 | 43.11594 | 132.16997 | 9783 ft | 329 kts | 0° |
| 2026-04-16 11:28 | 43.13782 | 132.17191 | 9335 ft | 310 kts | 0° |
| 2026-04-16 11:29 | 43.15884 | 132.17375 | 8849 ft | 296 kts | 0° |
| 2026-04-16 11:29 | 43.17912 | 132.17552 | 8308 ft | 292 kts | 360° |
| 2026-04-16 11:29 | 43.19279 | 132.17669 | 8117 ft | 290 kts | 360° |
| 2026-04-16 11:29 | 43.21912 | 132.17899 | 7882 ft | 282 kts | 360° |
| 2026-04-16 11:30 | 43.23225 | 132.18014 | 7777 ft | 277 kts | 360° |
| 2026-04-16 11:30 | 43.25091 | 132.18222 | 7550 ft | 270 kts | 7° |
| 2026-04-16 11:30 | 43.26804 | 132.19296 | 7123 ft | 277 kts | 41° |
| 2026-04-16 11:30 | 43.28023 | 132.21300 | 6785 ft | 273 kts | 55° |
| 2026-04-16 11:31 | 43.29132 | 132.23424 | 6453 ft | 274 kts | 55° |
| 2026-04-16 11:31 | 43.30242 | 132.25552 | 6156 ft | 273 kts | 55° |
| 2026-04-16 11:31 | 43.31337 | 132.27651 | 6041 ft | 266 kts | 55° |
| 2026-04-16 11:31 | 43.32398 | 132.29683 | 5978 ft | 257 kts | 55° |
| 2026-04-16 11:32 | 43.33425 | 132.31645 | 5961 ft | 251 kts | 54° |
| 2026-04-16 11:32 | 43.34443 | 132.33585 | 5971 ft | 251 kts | 54° |
| 2026-04-16 11:32 | 43.35465 | 132.35531 | 5981 ft | 252 kts | 54° |
| 2026-04-16 11:32 | 43.36491 | 132.37488 | 5984 ft | 253 kts | 54° |
| 2026-04-16 11:33 | 43.37523 | 132.39456 | 5980 ft | 255 kts | 54° |
| 2026-04-16 11:33 | 43.38643 | 132.41306 | 5951 ft | 249 kts | 34° |
| 2026-04-16 11:33 | 43.40183 | 132.42223 | 5947 ft | 242 kts | 2° |
| 2026-04-16 11:33 | 43.41862 | 132.42017 | 5437 ft | 244 kts | 334° |
| 2026-04-16 11:34 | 43.43378 | 132.41047 | 5037 ft | 242 kts | 325° |
| 2026-04-16 11:34 | 43.44875 | 132.39900 | 4502 ft | 250 kts | 324° |
| 2026-04-16 11:34 | 43.46331 | 132.38597 | 3979 ft | 248 kts | 309° |
| 2026-04-16 11:34 | 43.47168 | 132.36631 | 3527 ft | 235 kts | 276° |
| 2026-04-16 11:35 | 43.47104 | 132.34471 | 3062 ft | 223 kts | 248° |
| 2026-04-16 11:35 | 43.46575 | 132.32485 | 2705 ft | 220 kts | 243° |
| 2026-04-16 11:35 | 43.45963 | 132.30567 | 2398 ft | 217 kts | 238° |
| 2026-04-16 11:35 | 43.45254 | 132.28752 | 2098 ft | 214 kts | 236° |
| 2026-04-16 11:36 | 43.44535 | 132.26984 | 1785 ft | 206 kts | 236° |
| 2026-04-16 11:36 | 43.43873 | 132.25335 | 1518 ft | 185 kts | 236° |
| 2026-04-16 11:36 | 43.43283 | 132.23868 | 1277 ft | 168 kts | 236° |
| 2026-04-16 11:36 | 43.42740 | 132.22522 | 1027 ft | 155 kts | 237° |
| 2026-04-16 11:37 | 43.42238 | 132.21275 | 811 ft | 144 kts | 237° |
| 2026-04-16 11:37 | 43.41759 | 132.20099 | 682 ft | 142 kts | 236° |
| 2026-04-16 11:37 | 43.41268 | 132.18885 | 466 ft | 146 kts | 238° |
| 2026-04-16 11:37 | 43.40776 | 132.17657 | 285 ft | 147 kts | 239° |
| 2026-04-16 11:38 | 43.40286 | 132.16428 | 90 ft | 148 kts | 239° |
| 2026-04-16 11:38 | 43.39826 | 132.15309 | 71 ft | 116 kts | 240° |
| 2026-04-16 11:38 | 43.39511 | 132.14525 | 72 ft | 72 kts | 242° |
| 2026-04-16 11:38 | 43.39333 | 132.14073 | 67 ft | 48 kts | 241° |
| 2026-04-16 11:39 | 43.39174 | 132.13681 | 64 ft | 45 kts | 241° |
| 2026-04-16 11:39 | 43.39055 | 132.13383 | 65 ft | 28 kts | 241° |
| 2026-04-16 11:39 | 43.38975 | 132.13188 | 66 ft | 20 kts | 240° |
| 2026-04-16 11:39 | 43.38891 | 132.13120 | 67 ft | 15 kts | 166° |
| 2026-04-16 11:40 | 43.38799 | 132.13186 | 66 ft | 15 kts | 143° |
| 2026-04-16 11:40 | 43.38786 | 132.13314 | 71 ft | 15 kts | 68° |
| 2026-04-16 11:40 | 43.38832 | 132.13437 | 64 ft | 15 kts | 61° |
| 2026-04-16 11:40 | 43.38882 | 132.13558 | 71 ft | 15 kts | 60° |
| 2026-04-16 11:41 | 43.38931 | 132.13679 | 64 ft | 15 kts | 60° |
| 2026-04-16 11:41 | 43.38981 | 132.13800 | 64 ft | 15 kts | 60° |
| 2026-04-16 11:41 | 43.39030 | 132.13921 | 64 ft | 15 kts | 62° |
| 2026-04-16 11:41 | 43.39076 | 132.14043 | 69 ft | 15 kts | 62° |
| 2026-04-16 11:42 | 43.39125 | 132.14165 | 64 ft | 15 kts | 60° |
| 2026-04-16 11:42 | 43.39175 | 132.14285 | 64 ft | 15 kts | 60° |
| 2026-04-16 11:42 | 43.39225 | 132.14406 | 64 ft | 15 kts | 60° |
| 2026-04-16 11:42 | 43.39274 | 132.14527 | 64 ft | 15 kts | 61° |
| 2026-04-16 11:43 | 43.39323 | 132.14649 | 64 ft | 15 kts | 61° |
| 2026-04-16 11:43 | 43.39371 | 132.14770 | 64 ft | 15 kts | 61° |
| 2026-04-16 11:43 | 43.39420 | 132.14892 | 64 ft | 15 kts | 60° |
| 2026-04-16 11:43 | 43.39470 | 132.15013 | 66 ft | 15 kts | 60° |
| 2026-04-16 11:44 | 43.39519 | 132.15133 | 64 ft | 15 kts | 60° |
| 2026-04-16 11:44 | 43.39569 | 132.15254 | 73 ft | 15 kts | 60° |
| 2026-04-16 11:44 | 43.39618 | 132.15376 | 64 ft | 15 kts | 61° |
| 2026-04-16 11:44 | 43.39667 | 132.15497 | 64 ft | 15 kts | 61° |
| 2026-04-16 11:45 | 43.39716 | 132.15618 | 68 ft | 15 kts | 61° |
| 2026-04-16 11:45 | 43.39765 | 132.15740 | 68 ft | 15 kts | 61° |
| 2026-04-16 11:45 | 43.39813 | 132.15862 | 66 ft | 14 kts | 61° |
| 2026-04-16 11:45 | 43.39855 | 132.15967 | 65 ft | 10 kts | 60° |
| 2026-04-16 11:46 | 43.39885 | 132.16044 | 68 ft | 7 kts | 69° |
| 2026-04-16 11:46 | 43.39874 | 132.16111 | 69 ft | 8 kts | 127° |
| 2026-04-16 11:46 | 43.39832 | 132.16155 | 64 ft | 8 kts | 146° |
| 2026-04-16 11:46 | 43.39785 | 132.16194 | 61 ft | 8 kts | 150° |
| 2026-04-16 11:47 | 43.39744 | 132.16236 | 65 ft | 7 kts | 126° |
| 2026-04-16 11:47 | 43.39745 | 132.16304 | 69 ft | 8 kts | 65° |
| 2026-04-16 11:47 | 43.39774 | 132.16366 | 70 ft | 7 kts | 60° |
| 2026-04-16 11:47 | 43.39783 | 132.16426 | 71 ft | 7 kts | 111° |
| 2026-04-16 11:48 | 43.39745 | 132.16469 | 64 ft | 7 kts | 148° |
| 2026-04-16 11:48 | 43.39735 | 132.16477 | 60 ft | 0 kts | 150° |